Time;durP1;ratioP1;P1;durP2;ratioP2;P2;SDS_P1;SDS_P2;PMS_P1;PMS_P2;Temp;Humidity;BMP_temperature;BMP_pressure;BME280_temperature;BME280_humidity;BME280_pressure;Samples;Min_cycle;Max_cycle;Signal;HPM_P1;HPM_P2
2022/04/24 00:02:40;;;;;;;12.50;11.30;;;11.20;78.90;;;;;;5091429;28;20043;-49
2022/04/24 00:05:24;;;;;;;13.82;12.00;;;11.10;79.30;;;;;;5091628;28;20174;-51
2022/04/24 00:08:08;;;;;;;13.83;12.10;;;11.10;79.10;;;;;;5091594;28;20040;-53
2022/04/24 00:10:53;;;;;;;14.63;12.38;;;11.00;79.70;;;;;;5092024;28;20448;-53
2022/04/24 00:13:41;;;;;;;14.70;13.18;;;10.90;80.20;;;;;;5091360;28;20047;-52
2022/04/24 00:16:26;;;;;;;13.77;12.27;;;10.70;80.40;;;;;;5108256;28;20074;-49
2022/04/24 00:19:10;;;;;;;14.63;13.13;;;10.70;81.50;;;;;;5096698;27;20042;-47
2022/04/24 00:21:55;;;;;;;13.85;12.43;;;10.70;81.00;;;;;;5132472;27;20042;-52
2022/04/24 00:24:39;;;;;;;13.73;12.27;;;10.60;81.60;;;;;;5116188;27;20043;-51
2022/04/24 00:27:23;;;;;;;14.05;12.63;;;10.60;82.00;;;;;;5094402;28;20132;-52
2022/04/24 00:30:08;;;;;;;15.82;13.30;;;10.40;82.40;;;;;;5108296;28;20123;-53
2022/04/24 00:32:52;;;;;;;17.27;12.70;;;10.40;82.50;;;;;;5111312;28;20078;-52
2022/04/24 00:35:36;;;;;;;14.67;12.00;;;10.30;83.00;;;;;;5091314;28;20043;-51
2022/04/24 00:38:20;;;;;;;13.93;12.38;;;10.20;83.40;;;;;;5091930;28;20431;-51
2022/04/24 00:41:04;;;;;;;14.63;13.15;;;10.10;84.00;;;;;;5111800;28;20042;-53
2022/04/24 00:43:52;;;;;;;14.77;12.68;;;10.10;84.30;;;;;;5110340;28;20035;-55
2022/04/24 00:46:47;;;;;;;14.85;12.48;;;10.10;84.10;;;;;;5109297;28;20096;-54
2022/04/24 00:49:31;;;;;;;12.87;11.60;;;10.10;84.80;;;;;;5090993;28;20035;-50
2022/04/24 00:52:16;;;;;;;13.98;11.85;;;10.00;84.80;;;;;;5091886;28;20451;-51
2022/04/24 00:55:00;;;;;;;14.25;12.77;;;10.00;85.10;;;;;;5091142;28;20403;-49
2022/04/24 00:57:46;;;;;;;14.23;12.70;;;10.00;85.40;;;;;;5092192;28;20043;-49
2022/04/24 01:00:32;;;;;;;13.77;12.18;;;10.00;85.50;;;;;;5091144;28;20043;-50
2022/04/24 01:03:16;;;;;;;13.63;12.23;;;9.90;85.70;;;;;;5108746;28;20564;-51
2022/04/24 01:06:00;;;;;;;14.35;12.60;;;9.80;86.60;;;;;;5095972;27;20077;-52
2022/04/24 01:08:44;;;;;;;13.93;12.52;;;9.70;87.00;;;;;;5075770;28;20070;-49
2022/04/24 01:11:28;;;;;;;13.20;11.88;;;9.70;87.40;;;;;;5106261;28;20414;-51
2022/04/24 01:14:16;;;;;;;13.82;12.48;;;9.70;87.60;;;;;;5111622;28;20109;-52
2022/04/24 01:17:04;;;;;;;13.57;12.18;;;9.70;87.90;;;;;;5092212;28;20119;-51
2022/04/24 01:19:51;;;;;;;13.77;12.27;;;9.60;88.70;;;;;;5110771;28;20073;-48
2022/04/24 01:22:36;;;;;;;14.13;12.63;;;9.60;88.70;;;;;;5111745;28;20063;-51
2022/04/24 01:25:20;;;;;;;14.30;12.90;;;9.60;89.30;;;;;;5090459;28;20030;-53
2022/04/24 01:28:08;;;;;;;12.87;11.57;;;9.50;89.80;;;;;;5131720;27;20034;-54
2022/04/24 01:30:52;;;;;;;14.57;11.70;;;9.50;90.20;;;;;;5122836;28;20043;-52
2022/04/24 01:33:36;;;;;;;13.50;12.17;;;9.50;90.30;;;;;;5095982;28;20070;-55
2022/04/24 01:36:20;;;;;;;14.98;13.35;;;9.50;90.60;;;;;;5085353;28;20039;-50
2022/04/24 01:39:05;;;;;;;13.23;11.83;;;9.60;90.60;;;;;;5120723;27;20084;-53
2022/04/24 01:41:51;;;;;;;13.17;11.87;;;9.60;90.60;;;;;;5115242;28;20042;-50
2022/04/24 01:44:35;;;;;;;13.43;12.02;;;9.60;90.60;;;;;;5115016;28;20471;-48
2022/04/24 01:47:19;;;;;;;15.53;12.27;;;9.50;90.90;;;;;;5091375;28;20199;-54
2022/04/24 01:50:03;;;;;;;14.15;12.75;;;9.50;91.10;;;;;;5092152;28;20039;-52
2022/04/24 01:52:48;;;;;;;13.20;11.77;;;9.50;91.30;;;;;;5091081;28;20028;-50
2022/04/24 01:55:32;;;;;;;12.82;11.50;;;9.50;91.50;;;;;;5091063;28;20038;-52
2022/04/24 01:58:16;;;;;;;13.98;11.77;;;9.50;91.70;;;;;;5112265;28;20039;-51
2022/04/24 02:01:00;;;;;;;14.20;12.70;;;9.50;91.90;;;;;;5093649;28;20086;-48
2022/04/24 02:03:44;;;;;;;14.43;12.07;;;9.40;92.10;;;;;;5080241;28;20063;-52
2022/04/24 02:06:28;;;;;;;12.20;11.00;;;9.40;92.30;;;;;;5080024;28;20078;-50
2022/04/24 02:09:13;;;;;;;14.98;12.10;;;9.40;92.70;;;;;;5094611;28;20051;-48
2022/04/24 02:11:57;;;;;;;13.32;12.02;;;9.20;93.10;;;;;;5115454;28;20414;-54
2022/04/24 02:14:41;;;;;;;13.40;12.05;;;9.30;93.30;;;;;;5097650;28;20433;-53
2022/04/24 02:17:25;;;;;;;13.20;11.90;;;9.20;93.50;;;;;;5094889;28;20077;-49
2022/04/24 02:20:09;;;;;;;14.07;12.63;;;9.30;93.60;;;;;;5107224;28;20070;-52
2022/04/24 02:22:55;;;;;;;15.02;12.50;;;9.30;93.70;;;;;;5114842;28;20046;-50
2022/04/24 02:25:39;;;;;;;12.93;11.63;;;9.20;93.80;;;;;;5085720;28;20100;-50
2022/04/24 02:28:23;;;;;;;15.52;13.25;;;9.20;94.10;;;;;;5109563;28;20047;-49
2022/04/24 02:31:08;;;;;;;17.13;13.15;;;9.20;94.30;;;;;;5095014;28;20087;-51
2022/04/24 02:33:52;;;;;;;13.27;11.88;;;9.10;94.50;;;;;;5103401;28;20027;-50
2022/04/24 02:36:36;;;;;;;16.05;12.95;;;9.10;94.80;;;;;;5112592;28;20552;-53
2022/04/24 02:39:20;;;;;;;16.10;12.27;;;9.10;95.20;;;;;;5072274;28;20039;-54
2022/04/24 02:42:04;;;;;;;18.83;13.00;;;9.10;95.20;;;;;;5101845;27;20047;-50
2022/04/24 02:44:48;;;;;;;15.40;13.13;;;9.00;95.50;;;;;;5115572;28;20043;-50
2022/04/24 02:47:34;;;;;;;14.20;12.17;;;9.00;95.80;;;;;;5106749;28;20573;-53
2022/04/24 02:50:18;;;;;;;15.68;12.27;;;8.90;96.10;;;;;;5095143;28;20332;-54
2022/04/24 02:53:02;;;;;;;14.88;11.98;;;9.00;96.30;;;;;;5106639;28;20123;-56
2022/04/24 02:55:46;;;;;;;15.85;12.80;;;9.00;96.30;;;;;;5115040;28;20142;-49
2022/04/24 02:58:30;;;;;;;16.02;12.65;;;8.90;96.50;;;;;;5099289;28;20043;-55
2022/04/24 03:01:14;;;;;;;14.63;13.13;;;8.80;96.90;;;;;;5094696;28;20043;-52
2022/04/24 03:03:58;;;;;;;13.73;12.43;;;8.80;97.00;;;;;;5094546;28;20043;-53
2022/04/24 03:06:42;;;;;;;15.75;12.55;;;8.80;97.00;;;;;;5090786;28;20045;-50
2022/04/24 03:09:27;;;;;;;16.95;12.85;;;8.70;97.20;;;;;;5114597;28;20074;-49
2022/04/24 03:12:10;;;;;;;14.10;11.88;;;8.70;97.40;;;;;;5097837;28;20094;-52
2022/04/24 03:14:54;;;;;;;14.55;12.82;;;8.70;97.70;;;;;;5093956;28;20526;-49
2022/04/24 03:17:39;;;;;;;15.07;12.77;;;8.60;98.00;;;;;;5112828;28;20140;-49
2022/04/24 03:20:23;;;;;;;14.05;12.55;;;8.60;98.00;;;;;;5114709;28;20513;-54
2022/04/24 03:23:07;;;;;;;14.82;12.60;;;8.60;98.30;;;;;;5078801;28;20055;-51
2022/04/24 03:25:52;;;;;;;16.25;13.35;;;8.60;98.20;;;;;;5096546;28;20038;-52
2022/04/24 03:28:36;;;;;;;18.80;13.57;;;8.60;98.30;;;;;;5114507;28;20061;-51
2022/04/24 03:31:20;;;;;;;15.73;13.00;;;8.50;98.50;;;;;;5107074;28;20055;-49
2022/04/24 03:34:05;;;;;;;17.27;13.45;;;8.50;98.80;;;;;;5093089;28;20039;-51
2022/04/24 03:36:49;;;;;;;14.02;12.32;;;8.40;99.00;;;;;;5093292;28;20035;-53
2022/04/24 03:39:34;;;;;;;18.20;12.52;;;8.30;99.20;;;;;;5080904;28;20042;-49
2022/04/24 03:42:18;;;;;;;16.73;13.50;;;8.50;99.00;;;;;;5107335;27;20448;-52
2022/04/24 03:45:06;;;;;;;16.40;12.07;;;8.40;99.00;;;;;;5107113;28;20514;-49
2022/04/24 03:47:51;;;;;;;15.70;12.68;;;8.40;99.30;;;;;;5093895;28;20086;-51
2022/04/24 03:50:36;;;;;;;16.80;13.00;;;8.40;99.30;;;;;;5103760;28;20039;-49
2022/04/24 03:53:20;;;;;;;15.20;13.60;;;8.30;99.60;;;;;;5113863;28;20093;-49
2022/04/24 03:56:04;;;;;;;15.20;13.15;;;8.30;99.60;;;;;;5096437;28;20042;-49
2022/04/24 03:58:48;;;;;;;17.92;13.20;;;8.30;99.70;;;;;;5093656;28;20035;-53
2022/04/24 04:01:32;;;;;;;16.47;14.40;;;8.20;99.90;;;;;;5077916;28;20117;-51
2022/04/24 04:04:17;;;;;;;15.77;12.73;;;8.10;99.90;;;;;;5092946;28;20043;-53
2022/04/24 04:07:01;;;;;;;16.55;13.20;;;8.20;99.80;;;;;;5077127;28;20069;-53
2022/04/24 04:09:45;;;;;;;15.98;13.30;;;8.20;99.90;;;;;;5082652;28;20038;-51
2022/04/24 04:12:29;;;;;;;17.48;13.32;;;8.10;99.90;;;;;;5112891;28;20081;-50
2022/04/24 04:15:13;;;;;;;14.82;13.13;;;8.20;99.90;;;;;;5093063;28;20062;-47
2022/04/24 04:17:57;;;;;;;18.48;13.93;;;8.10;99.90;;;;;;5097933;27;20039;-51
2022/04/24 04:20:43;;;;;;;14.98;13.40;;;8.10;99.90;;;;;;5112642;28;20030;-55
2022/04/24 04:23:27;;;;;;;17.75;13.50;;;8.10;99.90;;;;;;5090821;28;20094;-50
2022/04/24 04:26:11;;;;;;;15.93;13.02;;;8.20;99.90;;;;;;5092472;28;20039;-53
2022/04/24 04:28:57;;;;;;;15.60;14.00;;;8.30;99.90;;;;;;5092962;28;20066;-51
2022/04/24 04:31:41;;;;;;;15.60;12.82;;;8.20;99.90;;;;;;5076347;28;20092;-54
2022/04/24 04:34:25;;;;;;;17.88;14.27;;;8.20;99.90;;;;;;5092330;28;20352;-49
2022/04/24 04:37:09;;;;;;;15.10;12.67;;;8.30;99.90;;;;;;5091959;28;20032;-48
2022/04/24 04:39:53;;;;;;;14.15;12.20;;;8.30;99.90;;;;;;5101016;28;20069;-51
2022/04/24 04:42:38;;;;;;;14.87;13.10;;;8.30;99.90;;;;;;5108199;27;20034;-50
2022/04/24 04:45:24;;;;;;;;;;;8.30;99.90;;;;;;5120025;27;20054;-48
2022/04/24 04:48:09;;;;;;;16.90;13.70;;;8.30;99.90;;;;;;5096820;28;19910;-51
2022/04/24 04:50:53;;;;;;;17.33;12.65;;;8.20;99.90;;;;;;5080451;28;20042;-50
2022/04/24 04:53:38;;;;;;;14.18;12.55;;;8.30;99.90;;;;;;5076861;28;20039;-49
2022/04/24 04:56:22;;;;;;;16.20;13.05;;;8.30;99.90;;;;;;5092065;28;20047;-52
2022/04/24 04:59:06;;;;;;;17.70;13.32;;;8.30;99.90;;;;;;5104649;28;20031;-49
2022/04/24 05:01:51;;;;;;;15.00;12.70;;;8.30;99.90;;;;;;5112448;28;20051;-50
2022/04/24 05:04:35;;;;;;;15.60;12.18;;;8.40;99.90;;;;;;5111332;28;20042;-47
2022/04/24 05:07:18;;;;;;;16.63;12.90;;;8.40;99.90;;;;;;5112093;28;20066;-49
2022/04/24 05:10:04;;;;;;;16.08;13.18;;;8.40;99.90;;;;;;5093991;28;20113;-54
2022/04/24 05:12:48;;;;;;;15.25;13.20;;;8.40;99.90;;;;;;5092614;28;20522;-52
2022/04/24 05:15:32;;;;;;;16.52;13.38;;;8.40;99.90;;;;;;5112197;28;20459;-51
2022/04/24 05:18:18;;;;;;;14.47;12.40;;;8.40;99.90;;;;;;5107476;28;20034;-50
2022/04/24 05:21:02;;;;;;;14.70;12.50;;;8.50;99.80;;;;;;5110985;28;20027;-52
2022/04/24 05:23:48;;;;;;;14.67;13.17;;;8.60;99.70;;;;;;5110914;28;20407;-50
2022/04/24 05:26:32;;;;;;;16.30;13.15;;;8.60;99.80;;;;;;5111419;28;20039;-49
2022/04/24 05:29:17;;;;;;;15.52;13.20;;;8.60;99.80;;;;;;5111642;28;20101;-52
2022/04/24 05:32:01;;;;;;;;;;;8.60;99.90;;;;;;5107923;28;20031;-46
2022/04/24 05:34:45;;;;;;;15.27;13.07;;;8.70;99.80;;;;;;5091503;28;19911;-49
2022/04/24 05:37:29;;;;;;;16.90;13.25;;;8.90;99.50;;;;;;5103239;28;20506;-51
2022/04/24 05:40:15;;;;;;;16.00;13.70;;;8.90;99.40;;;;;;5115837;28;20088;-51
2022/04/24 05:42:59;;;;;;;17.30;14.05;;;8.90;99.30;;;;;;5117263;27;20331;-49
2022/04/24 05:45:43;;;;;;;21.35;13.38;;;9.00;99.50;;;;;;5115498;28;20070;-49
2022/04/24 05:48:28;;;;;;;15.75;12.82;;;9.20;99.10;;;;;;5100732;28;20104;-47
2022/04/24 05:51:11;;;;;;;18.60;13.13;;;9.10;99.30;;;;;;5095496;28;20564;-52
2022/04/24 05:53:56;;;;;;;15.97;13.67;;;9.10;99.30;;;;;;5113897;28;20034;-50
2022/04/24 05:56:40;;;;;;;15.20;13.60;;;9.20;99.30;;;;;;5103877;28;20091;-47
2022/04/24 05:59:24;;;;;;;16.17;14.10;;;9.30;99.30;;;;;;5095375;28;20180;-52
2022/04/24 06:02:07;;;;;;;16.55;13.85;;;9.40;99.20;;;;;;5109286;28;20043;-50
2022/04/24 06:04:53;;;;;;;15.73;13.63;;;9.40;98.80;;;;;;5115497;28;20097;-54
2022/04/24 06:07:39;;;;;;;17.83;14.57;;;9.50;98.80;;;;;;5097036;28;20106;-56
2022/04/24 06:10:23;;;;;;;16.10;14.40;;;9.60;98.50;;;;;;5079864;28;20039;-49
2022/04/24 06:13:07;;;;;;;15.00;13.37;;;9.60;98.50;;;;;;5094451;28;20090;-54
2022/04/24 06:15:55;;;;;;;16.25;14.05;;;9.70;98.30;;;;;;5081108;28;20027;-50
2022/04/24 06:18:39;;;;;;;18.35;14.18;;;9.80;98.20;;;;;;5115087;28;20086;-55
2022/04/24 06:21:23;;;;;;;18.42;14.43;;;9.90;98.10;;;;;;5109205;28;20085;-50
2022/04/24 06:24:07;;;;;;;16.73;13.90;;;10.00;98.00;;;;;;5094536;28;20071;-50
2022/04/24 06:26:51;;;;;;;18.17;13.82;;;10.10;97.90;;;;;;5094154;28;20617;-53
2022/04/24 06:29:35;;;;;;;20.25;15.27;;;10.30;97.50;;;;;;5094521;28;20035;-51
2022/04/24 06:32:19;;;;;;;28.55;15.85;;;10.30;97.60;;;;;;5094416;28;20403;-50
2022/04/24 06:35:04;;;;;;;17.10;15.30;;;10.40;97.60;;;;;;5095221;28;20586;-47
2022/04/24 06:37:49;;;;;;;;;;;10.50;97.30;;;;;;5114944;28;20145;-51
2022/04/24 06:40:34;;;;;;;27.92;17.48;;;10.60;97.30;;;;;;5114275;28;20009;-51
2022/04/24 06:43:18;;;;;;;18.95;14.50;;;10.70;96.90;;;;;;5131993;27;20521;-55
2022/04/24 06:46:02;;;;;;;16.38;13.77;;;10.70;97.00;;;;;;5108620;27;20043;-53
2022/04/24 06:48:46;;;;;;;17.88;14.95;;;10.70;96.90;;;;;;5083595;28;20456;-48
2022/04/24 06:51:30;;;;;;;19.23;14.77;;;10.70;96.80;;;;;;5115211;28;20106;-55
2022/04/24 06:54:14;;;;;;;16.88;14.40;;;10.80;96.70;;;;;;5104782;28;20401;-51
2022/04/24 06:57:01;;;;;;;16.85;15.07;;;10.80;96.80;;;;;;5093551;28;20059;-53
2022/04/24 06:59:45;;;;;;;16.80;15.05;;;10.90;96.70;;;;;;5107289;28;20034;-51
2022/04/24 07:02:29;;;;;;;19.27;14.90;;;10.90;96.60;;;;;;5093987;28;20039;-54
2022/04/24 07:05:14;;;;;;;16.65;14.85;;;11.10;96.30;;;;;;5078993;28;20090;-53
2022/04/24 07:07:58;;;;;;;19.98;15.32;;;11.30;96.10;;;;;;5131942;22;20034;-55
2022/04/24 07:10:48;;;;;;;26.13;18.90;;;11.40;95.90;;;;;;5053167;28;20657;-53
2022/04/24 07:13:32;;;;;;;17.02;15.18;;;11.40;95.80;;;;;;5052604;28;20527;-50
2022/04/24 07:16:16;;;;;;;15.48;13.88;;;11.50;95.50;;;;;;5038586;28;20127;-52
2022/04/24 07:19:01;;;;;;;16.98;15.13;;;11.60;95.40;;;;;;5036466;28;20430;-51
2022/04/24 07:21:48;;;;;;;17.40;15.65;;;11.50;95.20;;;;;;5053513;28;20047;-47
2022/04/24 07:24:32;;;;;;;16.50;14.75;;;11.70;95.20;;;;;;5052364;28;20511;-46
2022/04/24 07:27:16;;;;;;;19.20;15.47;;;11.80;95.00;;;;;;5052776;28;20044;-48
2022/04/24 07:30:00;;;;;;;17.30;15.60;;;12.00;94.90;;;;;;5053223;28;20126;-49
2022/04/24 07:32:50;;;;;;;17.25;14.07;;;12.10;94.50;;;;;;5051788;28;20408;-54
2022/04/24 07:35:37;;;;;;;15.63;13.85;;;12.20;94.30;;;;;;5037129;28;20060;-52
2022/04/24 07:38:21;;;;;;;16.98;15.18;;;12.40;94.10;;;;;;5037946;28;20035;-53
2022/04/24 07:41:05;;;;;;;16.40;14.60;;;12.60;93.60;;;;;;5053070;28;20083;-53
2022/04/24 07:43:49;;;;;;;16.53;14.57;;;12.70;93.00;;;;;;5044940;28;20535;-53
2022/04/24 07:46:34;;;;;;;17.85;13.50;;;12.90;92.60;;;;;;5037176;28;20087;-51
2022/04/24 07:49:18;;;;;;;16.80;14.93;;;12.90;92.10;;;;;;5052631;28;20044;-51
2022/04/24 07:52:02;;;;;;;18.17;15.03;;;12.90;92.00;;;;;;5037735;28;20126;-48
2022/04/24 07:54:47;;;;;;;17.60;15.82;;;13.00;91.70;;;;;;5053110;28;20064;-52
2022/04/24 07:57:31;;;;;;;17.08;14.60;;;13.10;91.40;;;;;;5038332;28;20127;-54
2022/04/24 08:00:23;;;;;;;16.63;14.63;;;13.30;92.20;;;;;;5052000;28;20063;-54
2022/04/24 08:03:09;;;;;;;16.02;14.43;;;13.60;92.20;;;;;;5051817;28;20519;-53
2022/04/24 08:05:53;;;;;;;15.90;14.40;;;13.80;91.10;;;;;;5052352;28;20560;-53
2022/04/24 08:08:37;;;;;;;15.55;13.95;;;13.70;90.70;;;;;;5037537;28;20436;-50
2022/04/24 08:11:21;;;;;;;16.70;15.00;;;13.90;91.10;;;;;;5035823;28;20401;-54
2022/04/24 08:14:05;;;;;;;16.33;14.80;;;13.90;90.20;;;;;;5052577;28;20166;-51
2022/04/24 08:16:49;;;;;;;16.52;14.82;;;14.00;90.00;;;;;;5051058;28;20612;-50
2022/04/24 08:19:33;;;;;;;16.50;14.80;;;14.20;89.90;;;;;;5052408;28;20039;-54
2022/04/24 08:22:17;;;;;;;17.27;15.33;;;14.40;89.20;;;;;;5044836;28;20305;-50
2022/04/24 08:25:01;;;;;;;15.83;14.13;;;14.50;89.00;;;;;;5051553;28;20107;-50
2022/04/24 08:27:47;;;;;;;17.45;14.05;;;14.70;88.30;;;;;;5052051;28;20376;-53
2022/04/24 08:30:32;;;;;;;16.52;14.45;;;14.80;86.60;;;;;;5051864;28;20039;-54
2022/04/24 08:33:17;;;;;;;14.93;13.43;;;14.70;86.60;;;;;;5052190;28;20032;-54
2022/04/24 08:36:01;;;;;;;15.25;13.57;;;14.80;86.20;;;;;;5052505;28;20035;-52
2022/04/24 08:38:46;;;;;;;13.20;12.00;;;14.90;84.90;;;;;;5051809;28;20028;-49
2022/04/24 08:41:32;;;;;;;15.70;14.13;;;15.00;85.20;;;;;;5050672;28;20102;-54
2022/04/24 08:44:16;;;;;;;15.30;13.70;;;15.10;84.70;;;;;;5050922;28;20036;-55
2022/04/24 08:47:01;;;;;;;17.37;13.40;;;15.10;83.00;;;;;;5021942;28;20087;-53
2022/04/24 08:49:46;;;;;;;15.82;14.05;;;14.90;82.90;;;;;;5051373;28;20102;-51
2022/04/24 08:52:31;;;;;;;15.70;14.02;;;14.60;82.90;;;;;;5051102;28;20036;-53
2022/04/24 08:55:15;;;;;;;14.57;13.10;;;14.50;84.00;;;;;;5049262;28;20039;-54
2022/04/24 08:58:00;;;;;;;15.18;13.40;;;14.50;83.30;;;;;;5050886;28;20511;-51
2022/04/24 09:00:45;;;;;;;14.63;13.05;;;14.40;83.80;;;;;;5051366;28;20067;-54
2022/04/24 09:03:29;;;;;;;14.13;12.48;;;14.60;84.20;;;;;;5050144;28;20519;-52
2022/04/24 09:06:23;;;;;;;14.95;11.68;;;14.70;84.10;;;;;;5044987;28;20048;-56
2022/04/24 09:09:08;;;;;;;14.93;13.43;;;14.90;82.90;;;;;;5039544;28;20048;-53
2022/04/24 09:11:52;;;;;;;15.00;13.27;;;14.80;82.70;;;;;;5049978;28;20568;-50
2022/04/24 09:14:38;;;;;;;14.52;12.98;;;14.70;82.90;;;;;;5031579;28;20032;-53
2022/04/24 09:17:27;;;;;;;13.73;12.38;;;14.90;81.80;;;;;;5047109;28;20558;-52
2022/04/24 09:20:17;;;;;;;14.02;12.63;;;14.80;80.80;;;;;;5050589;28;20515;-53
2022/04/24 09:23:02;;;;;;;13.73;12.32;;;14.80;80.80;;;;;;5050837;28;20124;-53
2022/04/24 09:25:47;;;;;;;14.40;12.55;;;14.80;80.60;;;;;;5050419;28;20278;-56
2022/04/24 09:28:40;;;;;;;16.70;14.65;;;14.80;80.50;;;;;;5050763;28;20400;-51
2022/04/24 09:31:31;;;;;;;14.02;12.18;;;14.90;80.30;;;;;;5031216;28;20052;-54
2022/04/24 09:34:19;;;;;;;14.32;12.23;;;15.00;80.30;;;;;;5020394;28;20091;-52
2022/04/24 09:37:06;;;;;;;15.27;13.15;;;14.90;79.30;;;;;;5050653;28;20043;-52
2022/04/24 09:39:52;;;;;;;14.07;12.40;;;14.60;79.80;;;;;;5050653;28;20190;-55
2022/04/24 09:42:38;;;;;;;13.07;11.77;;;14.70;79.80;;;;;;5036742;28;20535;-54
2022/04/24 09:45:25;;;;;;;14.00;11.60;;;14.70;79.50;;;;;;5049851;28;20071;-51
2022/04/24 09:48:20;;;;;;;14.32;12.20;;;14.80;79.20;;;;;;5050923;28;20091;-54
2022/04/24 09:51:04;;;;;;;;;;;14.70;79.60;;;;;;5032559;28;20119;-53
2022/04/24 09:53:52;;;;;;;12.68;11.38;;;14.60;79.80;;;;;;5034969;28;19912;-55
2022/04/24 09:56:38;;;;;;;13.07;11.68;;;14.70;80.10;;;;;;5036212;28;20047;-52
2022/04/24 09:59:25;;;;;;;13.23;11.95;;;14.70;79.80;;;;;;5050586;28;20224;-52
2022/04/24 10:02:11;;;;;;;12.90;11.70;;;14.70;79.30;;;;;;5050383;28;20036;-52
2022/04/24 10:04:55;;;;;;;14.55;11.77;;;14.70;78.40;;;;;;5035650;28;20087;-49
2022/04/24 10:07:40;;;;;;;12.82;11.52;;;14.70;78.70;;;;;;5050667;28;20385;-53
2022/04/24 10:10:24;;;;;;;12.63;11.40;;;14.80;79.00;;;;;;5050292;28;20091;-48
2022/04/24 10:13:10;;;;;;;13.38;10.38;;;14.80;78.80;;;;;;5049473;28;20072;-50
2022/04/24 10:16:15;;;;;;;13.07;11.88;;;14.80;79.20;;;;;;5049569;28;20141;-51
2022/04/24 10:19:27;;;;;;;12.98;11.55;;;14.70;78.60;;;;;;5014734;28;20512;-49
2022/04/24 10:22:38;;;;;;;14.10;11.93;;;14.70;79.40;;;;;;5051002;28;20032;-55
2022/04/24 10:25:37;;;;;;;13.30;11.93;;;14.70;79.10;;;;;;5034124;28;20099;-49
2022/04/24 10:28:22;;;;;;;13.70;12.30;;;14.70;79.20;;;;;;5043233;28;20043;-50
2022/04/24 10:31:10;;;;;;;12.60;10.98;;;14.80;79.40;;;;;;5053925;28;20438;-49
2022/04/24 10:33:55;;;;;;;13.25;11.95;;;14.80;79.50;;;;;;5053309;28;20044;-50
2022/04/24 10:36:54;;;;;;;13.43;11.60;;;14.90;79.50;;;;;;5054694;28;20087;-48
2022/04/24 10:39:40;;;;;;;12.63;11.00;;;15.00;80.50;;;;;;5052528;28;20396;-50
2022/04/24 10:42:32;;;;;;;13.00;11.63;;;15.10;80.40;;;;;;5054280;28;20094;-50
2022/04/24 10:45:19;;;;;;;14.52;12.45;;;15.30;80.30;;;;;;5034031;28;20036;-53
2022/04/24 10:48:14;;;;;;;13.48;11.45;;;15.50;79.10;;;;;;5038385;28;20166;-49
2022/04/24 10:51:00;;;;;;;13.65;12.25;;;15.60;79.20;;;;;;5054249;28;20090;-55
2022/04/24 10:53:49;;;;;;;15.30;12.15;;;15.70;80.50;;;;;;5053232;28;20055;-53
2022/04/24 10:56:36;;;;;;;12.32;11.05;;;15.90;78.70;;;;;;5053941;28;20467;-52
2022/04/24 10:59:22;;;;;;;14.10;11.55;;;15.90;77.60;;;;;;5038522;28;20048;-51
2022/04/24 11:02:09;;;;;;;12.38;10.57;;;15.90;76.40;;;;;;5053735;28;20079;-53
2022/04/24 11:05:02;;;;;;;12.13;10.45;;;15.90;76.40;;;;;;5052978;28;20040;-55
2022/04/24 11:07:47;;;;;;;10.75;9.75;;;15.90;78.00;;;;;;5053292;28;20044;-52
2022/04/24 11:10:45;;;;;;;12.20;10.98;;;16.00;77.20;;;;;;5048459;28;20086;-54
2022/04/24 11:13:30;;;;;;;12.75;11.50;;;16.10;76.20;;;;;;5053244;28;20415;-53
2022/04/24 11:16:14;;;;;;;13.10;11.77;;;16.00;76.20;;;;;;5052905;28;20081;-48
2022/04/24 11:18:58;;;;;;;12.17;10.87;;;15.90;77.20;;;;;;5038124;28;20393;-51
2022/04/24 11:21:43;;;;;;;12.65;11.30;;;15.70;77.40;;;;;;5053229;28;20449;-52
2022/04/24 11:24:31;;;;;;;12.02;10.70;;;15.70;77.50;;;;;;5038274;28;20115;-55
2022/04/24 11:27:15;;;;;;;12.95;10.93;;;15.70;77.90;;;;;;5053122;28;20086;-51
2022/04/24 11:29:59;;;;;;;14.57;11.33;;;15.80;78.70;;;;;;5018563;28;20128;-51
2022/04/24 11:33:00;;;;;;;12.80;11.50;;;15.60;79.30;;;;;;5035785;28;20290;-52
2022/04/24 11:35:44;;;;;;;13.10;11.38;;;15.40;81.40;;;;;;5047800;28;20044;-51
2022/04/24 11:38:29;;;;;;;13.13;11.85;;;15.40;81.70;;;;;;5052157;28;20067;-53
2022/04/24 11:41:14;;;;;;;14.65;12.10;;;15.40;83.20;;;;;;5053053;28;20079;-54
2022/04/24 11:50:16;;;;;;;12.88;11.23;;;15.20;86.20;;;;;;5052361;28;20027;-52
2022/04/24 11:53:01;;;;;;;16.50;11.93;;;15.10;87.10;;;;;;5037118;28;20040;-55
2022/04/24 11:56:03;;;;;;;12.05;10.85;;;15.30;86.80;;;;;;5053271;28;20044;-57
2022/04/24 11:58:48;;;;;;;12.70;10.98;;;15.30;88.00;;;;;;5053347;28;20076;-49
2022/04/24 12:01:32;;;;;;;11.20;10.10;;;15.50;85.90;;;;;;5053907;28;20515;-49
2022/04/24 12:04:20;;;;;;;14.40;12.25;;;15.60;86.00;;;;;;5052430;28;20072;-52
2022/04/24 12:07:07;;;;;;;12.57;11.15;;;15.60;85.70;;;;;;5052492;28;20562;-55
2022/04/24 12:10:22;;;;;;;12.60;11.30;;;15.60;86.30;;;;;;5041396;28;20060;-51
2022/04/24 12:13:09;;;;;;;13.35;11.25;;;15.70;86.20;;;;;;5049134;28;20036;-49
2022/04/24 12:15:53;;;;;;;17.42;11.70;;;15.70;86.90;;;;;;5051254;28;20040;-55
2022/04/24 12:18:38;;;;;;;;;;;15.70;87.20;;;;;;5030364;28;20071;-55
2022/04/24 12:21:22;;;;;;;12.50;9.57;;;15.60;86.10;;;;;;5048693;28;20264;-54
2022/04/24 12:24:06;;;;;;;12.68;11.10;;;15.60;85.90;;;;;;5051618;28;20099;-49
2022/04/24 12:26:52;;;;;;;15.75;13.07;;;15.70;86.50;;;;;;5036957;28;20566;-54
2022/04/24 12:29:40;;;;;;;17.65;14.85;;;15.80;85.80;;;;;;5052055;28;20435;-51
2022/04/24 12:32:28;;;;;;;12.32;11.02;;;15.90;85.90;;;;;;5036181;28;20036;-53
2022/04/24 12:35:48;;;;;;;14.93;11.73;;;16.00;86.20;;;;;;5052276;28;20393;-52
2022/04/24 12:38:32;;;;;;;10.88;9.77;;;16.00;84.80;;;;;;4970917;28;20030;-58
2022/04/24 12:41:16;;;;;;;11.35;9.82;;;15.90;84.50;;;;;;5051923;28;20040;-53
2022/04/24 12:44:02;;;;;;;10.82;9.40;;;15.90;83.20;;;;;;5031771;28;20091;-52
2022/04/24 12:46:46;;;;;;;14.63;9.75;;;15.90;83.30;;;;;;5046335;28;20032;-61
2022/04/24 12:49:32;;;;;;;10.60;9.50;;;15.90;81.90;;;;;;5052100;28;20117;-53
2022/04/24 12:52:21;;;;;;;9.90;8.73;;;16.10;81.70;;;;;;5035044;28;20125;-51
2022/04/24 12:55:06;;;;;;;11.27;8.60;;;16.30;79.70;;;;;;5052184;28;20581;-55
2022/04/24 12:57:50;;;;;;;12.75;8.60;;;16.40;79.00;;;;;;5052013;28;20068;-54
2022/04/24 13:00:35;;;;;;;12.70;8.60;;;16.40;79.30;;;;;;5052270;28;20051;-53
2022/04/24 13:03:22;;;;;;;13.63;8.77;;;16.50;78.90;;;;;;5051893;28;20374;-52
2022/04/24 13:06:07;;;;;;;10.90;8.82;;;16.50;77.50;;;;;;5051819;28;20044;-49
2022/04/24 13:08:53;;;;;;;18.00;10.40;;;16.60;77.20;;;;;;5052089;28;20078;-50
2022/04/24 13:11:37;;;;;;;14.68;9.25;;;16.50;77.20;;;;;;5052470;28;20583;-51
2022/04/24 13:14:23;;;;;;;;;;;16.40;77.10;;;;;;5045574;28;20036;-56
2022/04/24 13:20:10;;;;;;;12.15;9.50;;;16.40;76.30;;;;;;5051338;28;20047;-54
2022/04/24 13:22:54;;;;;;;11.63;9.35;;;16.40;76.50;;;;;;5051604;28;20039;-54
2022/04/24 13:25:41;;;;;;;13.40;10.65;;;16.50;76.30;;;;;;5031678;28;20527;-50
2022/04/24 13:28:25;;;;;;;9.57;7.57;;;16.30;75.10;;;;;;5050311;28;20032;-55
2022/04/24 13:31:09;;;;;;;9.63;8.63;;;16.20;74.20;;;;;;5051906;28;20460;-54
2022/04/24 13:33:53;;;;;;;11.82;8.40;;;16.10;73.70;;;;;;5051552;28;20341;-54
2022/04/24 13:36:37;;;;;;;9.50;7.68;;;16.00;73.50;;;;;;5051770;28;20051;-50
2022/04/24 13:39:21;;;;;;;19.38;14.45;;;15.90;73.10;;;;;;5051737;28;20084;-49
2022/04/24 13:42:07;;;;;;;17.23;11.85;;;16.00;73.40;;;;;;5051411;28;20123;-53
2022/04/24 13:44:51;;;;;;;10.27;7.50;;;16.10;73.20;;;;;;5036556;28;20075;-54
2022/04/24 13:47:35;;;;;;;8.52;6.95;;;16.10;73.20;;;;;;5051590;28;20074;-52
2022/04/24 13:50:21;;;;;;;11.13;7.50;;;16.10;73.60;;;;;;5051665;28;20086;-53
2022/04/24 13:53:06;;;;;;;11.57;8.02;;;16.10;74.90;;;;;;5050679;28;20083;-55
2022/04/24 13:55:50;;;;;;;11.18;8.65;;;16.00;76.20;;;;;;5051293;28;20040;-55
2022/04/24 13:58:34;;;;;;;;;;;16.00;76.50;;;;;;5054192;28;20539;-51
2022/04/24 14:01:19;;;;;;;10.35;7.65;;;16.00;77.10;;;;;;5054719;28;19920;-53
2022/04/24 14:04:04;;;;;;;9.15;7.22;;;15.90;77.30;;;;;;5054713;28;20090;-55
2022/04/24 14:06:49;;;;;;;19.85;9.55;;;15.90;77.50;;;;;;5054705;28;20106;-50
2022/04/24 14:09:34;;;;;;;11.48;8.35;;;15.90;77.60;;;;;;5038918;28;20048;-54
2022/04/24 14:12:20;;;;;;;10.75;8.30;;;15.80;77.50;;;;;;5050415;28;20055;-54
2022/04/24 14:15:05;;;;;;;;;;;15.70;77.90;;;;;;5054948;28;20054;-52
2022/04/24 14:17:50;;;;;;;14.15;12.57;;;15.50;78.20;;;;;;5039574;28;20004;-55
2022/04/24 14:20:34;;;;;;;14.93;9.98;;;15.30;79.50;;;;;;5040114;28;20516;-53